Time;durP1;ratioP1;P1;durP2;ratioP2;P2;SDS_P1;SDS_P2;PMS_P1;PMS_P2;Temp;Humidity;BMP_temperature;BMP_pressure;BME280_temperature;BME280_humidity;BME280_pressure;Samples;Min_cycle;Max_cycle;Signal;HPM_P1;HPM_P2
2022/06/07 00:02:30;;;;;;;;;;;10.50;99.90;;;;;;5115337;28;20045;-77
2022/06/07 00:04:56;;;;;;;;;;;10.40;99.90;;;;;;5114018;28;19911;-77
2022/06/07 00:07:23;;;;;;;;;;;10.40;99.90;;;;;;5115674;28;20356;-77
2022/06/07 00:09:49;;;;;;;;;;;10.40;99.90;;;;;;5114693;28;19961;-77
2022/06/07 00:12:17;;;;;;;;;;;10.40;99.90;;;;;;5115155;28;19912;-77
2022/06/07 00:14:43;;;;;;;;;;;10.40;99.90;;;;;;5114508;28;19908;-76
2022/06/07 00:17:09;;;;;;;;;;;10.40;99.90;;;;;;5114978;28;19908;-77
2022/06/07 00:19:34;;;;;;;;;;;10.30;99.90;;;;;;5114092;28;19908;-75
2022/06/07 00:22:00;;;;;;;;;;;10.30;99.90;;;;;;5114952;28;19915;-77
2022/06/07 00:24:26;;;;;;;;;;;10.30;99.90;;;;;;5114933;28;19958;-77
2022/06/07 00:26:52;;;;;;;;;;;10.30;99.90;;;;;;5114027;28;20750;-76
2022/06/07 00:29:18;;;;;;;;;;;10.30;99.90;;;;;;5114735;28;19961;-77
2022/06/07 00:31:44;;;;;;;;;;;10.30;99.90;;;;;;5114181;28;19985;-77
2022/06/07 00:34:10;;;;;;;;;;;10.30;99.90;;;;;;5114672;28;19916;-77
2022/06/07 00:36:36;;;;;;;;;;;10.30;99.90;;;;;;5113722;28;19915;-76
2022/06/07 00:39:03;;;;;;;;;;;10.30;99.90;;;;;;5114545;28;19908;-76
2022/06/07 00:41:29;;;;;;;;;;;10.30;99.90;;;;;;5114444;28;20360;-76
2022/06/07 00:44:13;;;;;;;;;;;10.30;99.90;;;;;;5113921;28;19908;-76
2022/06/07 00:46:39;;;;;;;;;;;10.30;99.90;;;;;;5113570;28;20284;-76
2022/06/07 00:49:04;;;;;;;;;;;10.30;99.90;;;;;;5114493;28;19908;-76
2022/06/07 00:51:30;;;;;;;;;;;10.10;99.90;;;;;;5114826;28;19915;-76
2022/06/07 00:53:55;;;;;;;;;;;10.10;99.90;;;;;;5113778;28;20733;-76
2022/06/07 00:56:21;;;;;;;;;;;10.10;99.90;;;;;;5114187;28;19912;-76
2022/06/07 00:58:48;;;;;;;;;;;10.00;99.90;;;;;;5113739;28;19947;-76
2022/06/07 01:01:14;;;;;;;;;;;10.00;99.90;;;;;;5114257;28;19908;-77
2022/06/07 01:03:39;;;;;;;;;;;10.00;99.90;;;;;;5113269;28;19920;-76
2022/06/07 01:11:33;;;;;;;;;;;10.00;99.90;;;;;;5113801;28;19914;-77
2022/06/07 01:13:59;;;;;;;;;;;10.10;99.90;;;;;;5113328;28;19908;-77
2022/06/07 01:16:25;;;;;;;;;;;10.10;99.90;;;;;;5112822;28;19911;-77
2022/06/07 01:18:50;;;;;;;;;;;10.20;99.90;;;;;;5095145;28;19908;-76
2022/06/07 01:21:20;;;;;;;;;;;10.10;99.90;;;;;;5113877;28;19974;-77
2022/06/07 01:23:46;;;;;;;;;;;10.00;99.90;;;;;;5113144;28;19911;-76
2022/06/07 01:26:12;;;;;;;;;;;10.00;99.90;;;;;;5095480;28;19911;-76
2022/06/07 01:28:38;;;;;;;;;;;10.00;99.90;;;;;;5113712;28;20414;-74
2022/06/07 01:31:04;;;;;;;;;;;10.00;99.90;;;;;;5113688;28;19911;-77
2022/06/07 01:33:30;;;;;;;;;;;10.10;99.90;;;;;;5113578;28;19908;-77
2022/06/07 01:36:11;;;;;;;;;;;10.10;99.90;;;;;;5113224;28;20006;-77
2022/06/07 01:38:38;;;;;;;;;;;10.20;99.90;;;;;;5113457;28;19930;-75
2022/06/07 01:43:49;;;;;;;;;;;10.20;99.90;;;;;;5112955;28;19961;-77
2022/06/07 01:46:15;;;;;;;;;;;10.20;99.90;;;;;;5113806;28;19915;-77
2022/06/07 01:48:40;;;;;;;;;;;10.10;99.90;;;;;;5112822;28;19947;-76
2022/06/07 01:51:07;;;;;;;;;;;10.10;99.90;;;;;;5113383;28;19961;-76
2022/06/07 01:53:34;;;;;;;;;;;10.10;99.90;;;;;;5113458;28;19907;-77
2022/06/07 01:56:01;;;;;;;;;;;10.00;99.90;;;;;;5112819;28;19903;-76
2022/06/07 01:58:26;;;;;;;;;;;10.00;99.90;;;;;;5113532;28;19950;-76
2022/06/07 02:00:52;;;;;;;;;;;10.00;99.90;;;;;;5112864;28;19907;-76
2022/06/07 02:03:18;;;;;;;;;;;10.00;99.90;;;;;;5113026;28;19919;-76
2022/06/07 02:05:53;;;;;;;;;;;10.00;99.90;;;;;;5113227;28;19912;-76
2022/06/07 02:08:18;;;;;;;;;;;10.00;99.90;;;;;;5113930;28;19908;-76
2022/06/07 02:10:44;;;;;;;;;;;10.10;99.90;;;;;;5113092;28;19908;-77
2022/06/07 02:13:09;;;;;;;;;;;10.10;99.90;;;;;;5113689;28;19947;-77
2022/06/07 02:15:35;;;;;;;;;;;10.10;99.90;;;;;;5095343;28;19914;-76
2022/06/07 02:18:01;;;;;;;;;;;10.00;99.90;;;;;;5113366;28;19990;-76
2022/06/07 02:20:26;;;;;;;;;;;9.90;99.90;;;;;;5113363;28;19923;-76
2022/06/07 02:22:52;;;;;;;;;;;9.80;99.90;;;;;;5112815;28;19919;-76
2022/06/07 02:25:17;;;;;;;;;;;9.80;99.90;;;;;;5113425;28;19958;-76
2022/06/07 02:27:43;;;;;;;;;;;9.70;99.90;;;;;;5114056;28;19908;-76
2022/06/07 02:30:09;;;;;;;;;;;9.70;99.90;;;;;;5121154;28;19914;-77
2022/06/07 02:32:35;;;;;;;;;;;9.60;99.90;;;;;;5120643;28;19907;-77
2022/06/07 02:35:01;;;;;;;;;;;9.60;99.90;;;;;;5117507;28;19947;-76
2022/06/07 02:37:28;;;;;;;;;;;9.60;99.90;;;;;;5099064;28;20315;-76
2022/06/07 02:39:54;;;;;;;;;;;9.60;99.90;;;;;;5116808;28;20375;-76
2022/06/07 02:42:22;;;;;;;;;;;9.60;99.90;;;;;;5117157;28;19908;-76
2022/06/07 02:44:47;;;;;;;;;;;9.60;99.90;;;;;;5116701;28;19912;-76
2022/06/07 02:47:13;;;;;;;;;;;9.60;99.90;;;;;;5117190;28;20356;-77
2022/06/07 02:49:38;;;;;;;;;;;9.60;99.90;;;;;;5116988;28;20332;-77
2022/06/07 02:52:04;;;;;;;;;;;9.60;99.90;;;;;;5116453;28;20418;-77
2022/06/07 02:54:30;;;;;;;;;;;9.60;99.90;;;;;;5116966;28;19908;-77
2022/06/07 02:56:55;;;;;;;;;;;9.70;99.90;;;;;;5116469;28;20269;-77
2022/06/07 02:59:21;;;;;;;;;;;9.70;99.90;;;;;;5116894;28;20002;-76
2022/06/07 03:01:47;;;;;;;;;;;9.70;99.90;;;;;;5116381;28;20372;-76
2022/06/07 03:04:12;;;;;;;;;;;9.60;99.90;;;;;;5116433;28;20285;-76
2022/06/07 03:06:38;;;;;;;;;;;9.60;99.90;;;;;;5116731;28;19916;-76
2022/06/07 03:09:03;;;;;;;;;;;9.50;99.90;;;;;;5116139;28;19943;-76
2022/06/07 03:11:29;;;;;;;;;;;9.40;99.90;;;;;;5116597;28;19976;-76
2022/06/07 03:13:55;;;;;;;;;;;9.40;99.90;;;;;;5116141;28;19915;-77
2022/06/07 03:16:20;;;;;;;;;;;9.40;99.90;;;;;;5117939;28;20006;-77
2022/06/07 03:18:46;;;;;;;;;;;9.50;99.90;;;;;;5121050;28;20296;-76
2022/06/07 03:21:11;;;;;;;;;;;9.50;99.90;;;;;;5118226;28;19928;-77
2022/06/07 03:23:37;;;;;;;;;;;9.50;99.90;;;;;;5116571;28;20357;-77
2022/06/07 03:26:04;;;;;;;;;;;9.40;99.90;;;;;;5115573;28;20280;-77
2022/06/07 03:28:29;;;;;;;;;;;9.30;99.90;;;;;;5116276;28;19908;-77
2022/06/07 03:31:01;;;;;;;;;;;9.40;99.90;;;;;;5115815;28;20302;-76
2022/06/07 03:33:27;;;;;;;;;;;9.30;99.90;;;;;;5116590;28;20007;-77
2022/06/07 03:35:52;;;;;;;;;;;9.30;99.90;;;;;;5116042;28;19940;-76
2022/06/07 03:38:18;;;;;;;;;;;9.20;99.90;;;;;;5116043;28;19908;-76
2022/06/07 03:40:44;;;;;;;;;;;9.30;99.90;;;;;;5114725;28;19907;-77
2022/06/07 03:43:10;;;;;;;;;;;9.20;99.90;;;;;;5115672;28;19911;-76
2022/06/07 03:45:36;;;;;;;;;;;9.30;99.90;;;;;;5115862;28;19935;-76
2022/06/07 03:48:02;;;;;;;;;;;9.30;99.90;;;;;;5115403;28;20345;-76
2022/06/07 03:50:27;;;;;;;;;;;9.20;99.90;;;;;;5115855;28;19907;-77
2022/06/07 03:52:53;;;;;;;;;;;9.20;99.90;;;;;;5115382;28;19921;-77
2022/06/07 03:55:18;;;;;;;;;;;9.00;99.90;;;;;;5115817;28;19955;-77
2022/06/07 03:57:44;;;;;;;;;;;9.00;99.90;;;;;;5115563;28;19961;-77
2022/06/07 04:00:10;;;;;;;;;;;9.00;99.90;;;;;;5115273;28;19908;-77
2022/06/07 04:02:36;;;;;;;;;;;9.00;99.90;;;;;;5115588;28;19915;-77
2022/06/07 04:05:01;;;;;;;;;;;9.00;99.90;;;;;;5117718;28;19916;-77
2022/06/07 04:10:12;;;;;;;;;;;9.00;99.90;;;;;;5115759;28;19961;-76
2022/06/07 04:12:37;;;;;;;;;;;9.00;99.90;;;;;;5115492;28;19907;-77
2022/06/07 04:15:03;;;;;;;;;;;8.90;99.90;;;;;;5115004;28;19907;-77
2022/06/07 04:17:28;;;;;;;;;;;8.90;99.90;;;;;;5115363;28;19912;-77
2022/06/07 04:19:54;;;;;;;;;;;8.90;99.90;;;;;;5114937;28;20273;-77
2022/06/07 04:22:20;;;;;;;;;;;8.80;99.90;;;;;;5115355;28;19911;-77
2022/06/07 04:24:46;;;;;;;;;;;8.70;99.90;;;;;;5114907;28;19924;-77
2022/06/07 04:27:12;;;;;;;;;;;8.80;99.90;;;;;;5114985;28;19915;-77
2022/06/07 04:29:37;;;;;;;;;;;8.80;99.90;;;;;;5115128;28;20341;-77
2022/06/07 04:32:03;;;;;;;;;;;8.70;99.90;;;;;;5114924;28;20288;-77
2022/06/07 04:34:28;;;;;;;;;;;8.70;99.90;;;;;;5114864;28;19908;-77
2022/06/07 04:36:54;;;;;;;;;;;8.70;99.90;;;;;;5114399;28;19961;-76
2022/06/07 04:39:20;;;;;;;;;;;8.80;99.90;;;;;;5114854;28;19931;-77
2022/06/07 04:41:45;;;;;;;;;;;8.80;99.90;;;;;;5114933;28;20357;-77
2022/06/07 04:44:11;;;;;;;;;;;8.80;99.90;;;;;;5114258;28;19922;-77
2022/06/07 04:46:37;;;;;;;;;;;8.90;99.90;;;;;;5114768;28;19955;-77
2022/06/07 04:49:02;;;;;;;;;;;9.00;99.90;;;;;;5114221;28;20355;-77
2022/06/07 04:51:30;;;;;;;;;;;9.10;99.90;;;;;;5117337;28;19952;-77
2022/06/07 04:53:57;;;;;;;;;;;9.20;99.90;;;;;;5117904;28;19914;-76
2022/06/07 04:56:24;;;;;;;;;;;9.30;99.90;;;;;;5115346;28;19931;-76
2022/06/07 04:58:50;;;;;;;;;;;9.60;99.90;;;;;;5114197;28;19947;-76
2022/06/07 05:01:17;;;;;;;;;;;9.70;99.90;;;;;;5114277;28;20284;-76
2022/06/07 05:03:42;;;;;;;;;;;9.70;99.90;;;;;;5114406;28;20014;-77
2022/06/07 05:06:18;;;;;;;;;;;9.60;99.90;;;;;;5114317;28;20010;-77
2022/06/07 05:08:44;;;;;;;;;;;9.60;99.90;;;;;;5114347;28;19908;-77
2022/06/07 05:11:09;;;;;;;;;;;9.60;99.90;;;;;;5113506;28;19912;-76
2022/06/07 05:13:35;;;;;;;;;;;9.60;99.90;;;;;;5114012;28;19915;-77
2022/06/07 05:16:00;;;;;;;;;;;9.80;99.90;;;;;;5113868;28;19912;-77
2022/06/07 05:18:26;;;;;;;;;;;10.10;99.90;;;;;;5114187;28;19999;-77
2022/06/07 05:20:52;;;;;;;;;;;10.30;99.90;;;;;;5113245;28;19950;-76
2022/06/07 05:23:17;;;;;;;;;;;10.50;99.90;;;;;;5114066;28;19915;-77
2022/06/07 05:25:53;;;;;;;;;;;10.70;99.90;;;;;;5114178;28;19912;-77
2022/06/07 05:28:19;;;;;;;;;;;10.90;99.90;;;;;;5114039;28;19908;-77
2022/06/07 05:30:45;;;;;;;;;;;10.90;99.90;;;;;;5114034;28;19922;-77
2022/06/07 05:33:10;;;;;;;;;;;10.90;99.90;;;;;;5113410;28;20172;-77
2022/06/07 05:35:36;;;;;;;;;;;11.00;99.90;;;;;;5114148;28;19908;-77
2022/06/07 05:38:01;;;;;;;;;;;11.00;99.90;;;;;;5115373;28;19958;-77
2022/06/07 05:40:27;;;;;;;;;;;11.10;99.90;;;;;;5117902;28;20367;-77
2022/06/07 05:42:52;;;;;;;;;;;11.10;99.90;;;;;;5113791;28;19918;-76
2022/06/07 05:45:18;;;;;;;;;;;11.20;99.90;;;;;;5113925;28;19912;-76
2022/06/07 05:47:43;;;;;;;;;;;11.30;99.90;;;;;;5113733;28;19908;-77
2022/06/07 05:50:09;;;;;;;;;;;11.30;99.90;;;;;;5113215;28;19908;-77
2022/06/07 05:52:40;;;;;;;;;;;11.30;99.90;;;;;;5113600;28;19954;-77
2022/06/07 05:55:06;;;;;;;;;;;11.40;99.90;;;;;;5113412;28;19998;-77
2022/06/07 05:57:32;;;;;;;;;;;11.30;99.90;;;;;;5113663;28;19935;-77
2022/06/07 05:59:58;;;;;;;;;;;11.50;99.90;;;;;;5113168;28;20371;-77
2022/06/07 06:02:23;;;;;;;;;;;11.50;99.90;;;;;;5114140;28;20010;-77
2022/06/07 06:04:49;;;;;;;;;;;11.60;99.90;;;;;;5117773;28;19923;-77
2022/06/07 06:07:14;;;;;;;;;;;11.70;99.90;;;;;;5117301;28;19907;-77
2022/06/07 06:12:24;;;;;;;;;;;12.00;99.90;;;;;;5117548;28;19915;-76
2022/06/07 06:14:49;;;;;;;;;;;12.20;99.90;;;;;;5117691;28;19908;-77
2022/06/07 06:17:15;;;;;;;;;;;12.30;99.90;;;;;;5117234;28;19912;-76
2022/06/07 06:19:41;;;;;;;;;;;12.50;99.90;;;;;;5117251;28;19949;-77
2022/06/07 06:22:06;;;;;;;;;;;12.60;99.90;;;;;;5117252;28;19914;-77
2022/06/07 06:24:32;;;;;;;;;;;12.70;99.90;;;;;;5120511;28;19912;-77
2022/06/07 06:26:58;;;;;;;;;;;12.80;99.90;;;;;;5122176;28;19919;-76
2022/06/07 06:29:24;;;;;;;;;;;13.00;99.90;;;;;;5117614;28;19915;-76
2022/06/07 06:31:51;;;;;;;;;;;13.10;99.90;;;;;;5117332;28;19955;-77
2022/06/07 06:34:17;;;;;;;;;;;13.20;99.90;;;;;;5116769;28;19908;-77
2022/06/07 06:36:44;;;;;;;;;;;13.30;99.90;;;;;;5116909;28;20324;-77
2022/06/07 06:39:10;;;;;;;;;;;13.50;99.90;;;;;;5116728;28;19908;-77
2022/06/07 06:41:36;;;;;;;;;;;13.60;99.90;;;;;;5117417;28;19915;-77
2022/06/07 06:44:03;;;;;;;;;;;13.70;99.90;;;;;;5116579;28;19911;-77
2022/06/07 06:46:39;;;;;;;;;;;13.80;99.90;;;;;;5117040;28;19919;-77
2022/06/07 06:49:05;;;;;;;;;;;13.90;99.90;;;;;;5116543;28;19907;-77
2022/06/07 06:51:31;;;;;;;;;;;14.10;99.90;;;;;;5117337;28;19908;-77
2022/06/07 06:53:57;;;;;;;;;;;14.10;99.90;;;;;;5116252;28;19908;-76
2022/06/07 06:56:23;;;;;;;;;;;14.20;99.90;;;;;;5117489;28;20276;-77
2022/06/07 06:58:50;;;;;;;;;;;14.40;99.90;;;;;;5116884;28;19908;-78
2022/06/07 07:01:17;;;;;;;;;;;14.50;99.90;;;;;;5116277;28;19907;-77
2022/06/07 07:03:43;;;;;;;;;;;14.60;99.90;;;;;;5117063;28;20016;-77
2022/06/07 07:06:10;;;;;;;;;;;14.80;99.90;;;;;;5116220;28;19912;-77
2022/06/07 07:08:37;;;;;;;;;;;14.90;99.90;;;;;;5116648;28;19907;-78
2022/06/07 07:11:04;;;;;;;;;;;15.00;99.90;;;;;;5116119;28;19908;-77
2022/06/07 07:13:30;;;;;;;;;;;15.10;99.90;;;;;;5117478;28;19998;-77
2022/06/07 07:15:56;;;;;;;;;;;15.20;99.90;;;;;;5116424;28;19951;-77
2022/06/07 07:18:21;;;;;;;;;;;15.30;99.90;;;;;;5116027;28;20353;-77
2022/06/07 07:20:47;;;;;;;;;;;15.20;99.90;;;;;;5116515;28;19924;-77
2022/06/07 07:23:12;;;;;;;;;;;15.30;99.90;;;;;;5115503;28;19955;-77
2022/06/07 07:25:38;;;;;;;;;;;15.40;99.90;;;;;;5116287;28;19918;-77
2022/06/07 07:28:04;;;;;;;;;;;15.50;99.90;;;;;;5115820;28;19916;-77
2022/06/07 07:30:29;;;;;;;;;;;15.60;99.90;;;;;;5116307;28;19908;-77
2022/06/07 07:32:56;;;;;;;;;;;15.70;99.90;;;;;;5116090;28;19908;-77
2022/06/07 07:35:22;;;;;;;;;;;15.70;99.90;;;;;;5115591;28;20060;-77
2022/06/07 07:37:48;;;;;;;;;;;15.80;99.90;;;;;;5115904;28;19912;-77
2022/06/07 07:40:13;;;;;;;;;;;15.90;99.90;;;;;;5115546;28;19916;-77
2022/06/07 07:42:41;;;;;;;;;;;15.90;99.90;;;;;;5115958;28;19990;-77
2022/06/07 07:45:07;;;;;;;;;;;16.10;99.90;;;;;;5115289;28;19912;-77
2022/06/07 07:47:33;;;;;;;;;;;16.20;99.90;;;;;;5115635;28;19912;-78
2022/06/07 07:49:59;;;;;;;;;;;16.20;99.90;;;;;;5115705;28;20260;-78
2022/06/07 07:52:25;;;;;;;;;;;16.20;99.90;;;;;;5115451;28;19964;-77
2022/06/07 07:54:51;;;;;;;;;;;16.30;99.90;;;;;;5115554;28;19927;-77
2022/06/07 07:57:16;;;;;;;;;;;16.40;99.90;;;;;;5115146;28;19907;-77
2022/06/07 07:59:42;;;;;;;;;;;16.40;99.90;;;;;;5115375;28;20357;-78
2022/06/07 08:02:15;;;;;;;;;;;16.50;99.90;;;;;;5114893;28;19913;-78
2022/06/07 08:04:40;;;;;;;;;;;16.60;99.90;;;;;;5115670;28;19912;-77
2022/06/07 08:07:07;;;;;;;;;;;16.50;99.90;;;;;;5114925;28;19912;-77
2022/06/07 08:09:33;;;;;;;;;;;16.60;99.90;;;;;;5115391;28;20277;-77
2022/06/07 08:11:59;;;;;;;;;;;16.70;99.90;;;;;;5115315;28;19907;-78
2022/06/07 08:14:25;;;;;;;;;;;16.80;99.90;;;;;;5096503;28;20257;-78
2022/06/07 08:16:51;;;;;;;;;;;16.90;99.90;;;;;;5115069;28;19985;-78
2022/06/07 08:19:18;;;;;;;;;;;16.80;99.90;;;;;;5114428;28;20263;-77
2022/06/07 08:21:43;;;;;;;;;;;16.90;99.90;;;;;;5114992;28;20063;-78
2022/06/07 08:24:09;;;;;;;;;;;17.00;99.90;;;;;;5114437;28;19916;-78
2022/06/07 08:26:35;;;;;;;;;;;17.10;99.90;;;;;;5114460;28;20365;-78
2022/06/07 08:29:02;;;;;;;;;;;17.20;99.90;;;;;;5114919;28;20364;-78
2022/06/07 08:31:29;;;;;;;;;;;16.90;99.90;;;;;;5114787;28;19952;-77
2022/06/07 08:39:24;;;;;;;;;;;17.10;99.90;;;;;;5114187;28;19956;-77
2022/06/07 08:41:53;;;;;;;;;;;17.10;99.90;;;;;;5114558;28;19915;-78
2022/06/07 08:44:27;;;;;;;;;;;17.00;99.90;;;;;;5114126;28;19911;-77
2022/06/07 08:46:54;;;;;;;;;;;17.00;99.90;;;;;;5114577;28;19912;-78
2022/06/07 08:49:19;;;;;;;;;;;17.10;99.90;;;;;;5114036;28;19956;-77
2022/06/07 08:51:50;;;;;;;;;;;17.00;99.90;;;;;;5114846;28;19908;-78
2022/06/07 08:54:18;;;;;;;;;;;17.00;99.90;;;;;;5114057;28;19908;-78
2022/06/07 08:56:44;;;;;;;;;;;17.00;99.90;;;;;;5114153;28;19915;-78
2022/06/07 08:59:12;;;;;;;;;;;17.20;99.90;;;;;;5113883;28;19998;-78
2022/06/07 09:01:40;;;;;;;;;;;17.20;99.90;;;;;;5114324;28;19908;-78
2022/06/07 09:04:15;;;;;;;;;;;17.10;99.90;;;;;;5095433;28;19912;-77
2022/06/07 09:06:42;;;;;;;;;;;17.20;99.90;;;;;;5114220;28;19962;-78
2022/06/07 09:09:09;;;;;;;;;;;17.30;99.90;;;;;;5114093;28;20068;-77
2022/06/07 09:14:44;;;;;;;;;;;17.50;99.90;;;;;;5113344;28;20016;-77
2022/06/07 09:17:12;;;;;;;;;;;17.40;99.90;;;;;;5109584;28;19907;-77
2022/06/07 09:19:38;;;;;;;;;;;17.60;99.90;;;;;;5113729;28;20353;-78
2022/06/07 09:22:07;;;;;;;;;;;17.70;99.90;;;;;;5113930;28;19915;-78
2022/06/07 09:24:42;;;;;;;;;;;17.20;99.90;;;;;;5113722;28;20273;-78
2022/06/07 09:27:16;;;;;;;;;;;17.30;99.90;;;;;;5113318;28;20280;-77
2022/06/07 09:29:42;;;;;;;;;;;17.40;99.90;;;;;;5113815;28;19957;-78
2022/06/07 09:32:09;;;;;;;;;;;17.50;99.90;;;;;;5113254;28;20000;-77
2022/06/07 09:34:34;;;;;;;;;;;17.60;99.90;;;;;;5113697;28;20002;-77
2022/06/07 09:37:12;;;;;;;;;;;17.40;99.90;;;;;;5112961;28;20345;-78
2022/06/07 09:39:39;;;;;;;;;;;17.50;99.90;;;;;;5113804;28;20395;-78
2022/06/07 09:42:17;;;;;;;;;;;17.50;99.90;;;;;;5113588;28;19963;-78
2022/06/07 09:44:55;;;;;;;;;;;17.50;99.90;;;;;;5113456;28;19919;-77
2022/06/07 09:47:21;;;;;;;;;;;17.40;99.90;;;;;;5112947;28;19912;-78
2022/06/07 09:49:48;;;;;;;;;;;17.20;99.90;;;;;;5113400;28;19931;-79
2022/06/07 09:52:23;;;;;;;;;;;17.00;99.90;;;;;;5113085;28;19907;-78
2022/06/07 09:54:51;;;;;;;;;;;16.90;99.90;;;;;;5113306;28;19996;-78
2022/06/07 09:57:31;;;;;;;;;;;16.80;99.90;;;;;;5112840;28;19912;-78
2022/06/07 09:59:56;;;;;;;;;;;16.90;99.90;;;;;;5113205;28;19994;-77
2022/06/07 10:02:29;;;;;;;;;;;16.90;99.90;;;;;;5112982;28;19912;-77
2022/06/07 10:04:57;;;;;;;;;;;16.70;99.90;;;;;;5095175;28;20288;-78
2022/06/07 10:07:43;;;;;;;;;;;16.70;99.90;;;;;;5112958;28;19914;-78
2022/06/07 10:10:12;;;;;;;;;;;16.90;99.90;;;;;;5112534;28;19916;-77
2022/06/07 10:12:56;;;;;;;;;;;17.00;99.90;;;;;;5113377;28;19922;-78
2022/06/07 10:15:33;;;;;;;;;;;17.00;99.90;;;;;;5112943;28;19918;-78
2022/06/07 10:18:13;;;;;;;;;;;17.20;99.90;;;;;;5121609;28;19955;-78
2022/06/07 10:20:57;;;;;;;;;;;17.00;99.90;;;;;;5121229;28;19920;-78
2022/06/07 10:23:37;;;;;;;;;;;17.00;99.90;;;;;;5113185;28;19919;-78
2022/06/07 10:26:12;;;;;;;;;;;17.00;99.90;;;;;;5113451;28;19992;-79
2022/06/07 10:29:13;;;;;;;;;;;17.10;99.90;;;;;;5113326;28;19915;-78
2022/06/07 10:31:44;;;;;;;;;;;17.10;99.90;;;;;;5030344;28;19910;-79
2022/06/07 10:34:22;;;;;;;;;;;17.10;99.90;;;;;;5098955;28;19915;-76
2022/06/07 10:36:54;;;;;;;;;;;17.10;99.90;;;;;;5113070;28;19907;-78
2022/06/07 10:39:25;;;;;;;;;;;17.10;99.90;;;;;;5112616;28;19915;-78
2022/06/07 10:41:57;;;;;;;;;;;17.00;99.90;;;;;;5113149;28;19912;-78
2022/06/07 10:44:23;;;;;;;;;;;17.10;99.90;;;;;;5112555;28;20264;-79
2022/06/07 10:46:48;;;;;;;;;;;17.10;99.90;;;;;;5113127;28;19912;-79
2022/06/07 10:49:34;;;;;;;;;;;17.00;99.90;;;;;;5114489;28;19978;-78
2022/06/07 10:52:24;;;;;;;;;;;17.10;99.90;;;;;;5115606;28;20287;-78
2022/06/07 10:54:52;;;;;;;;;;;17.30;99.90;;;;;;5106517;28;20356;-78
2022/06/07 10:57:27;;;;;;;;;;;17.60;99.90;;;;;;5116502;28;19908;-79
2022/06/07 10:59:53;;;;;;;;;;;17.80;99.90;;;;;;5116533;28;20006;-79
2022/06/07 11:02:18;;;;;;;;;;;17.90;99.90;;;;;;5115970;28;19962;-78
2022/06/07 11:10:24;;;;;;;;;;;17.70;99.90;;;;;;5116100;28;19926;-78
2022/06/07 11:13:08;;;;;;;;;;;17.60;99.90;;;;;;5117328;28;20002;-79
2022/06/07 11:15:44;;;;;;;;;;;17.60;99.90;;;;;;5117762;28;19931;-79
2022/06/07 11:18:13;;;;;;;;;;;17.60;99.90;;;;;;5116103;28;19908;-78
2022/06/07 11:20:47;;;;;;;;;;;17.40;99.90;;;;;;5116337;28;19920;-78
2022/06/07 11:23:15;;;;;;;;;;;17.30;99.90;;;;;;5116045;28;20359;-78
2022/06/07 11:25:43;;;;;;;;;;;17.30;99.90;;;;;;5116466;28;19918;-78
2022/06/07 11:28:28;;;;;;;;;;;17.20;99.90;;;;;;5115904;28;20322;-78
2022/06/07 11:30:59;;;;;;;;;;;17.30;99.90;;;;;;5101313;28;19914;-78
2022/06/07 11:33:32;;;;;;;;;;;17.50;99.90;;;;;;5115622;28;19958;-78
2022/06/07 11:36:13;;;;;;;;;;;17.60;99.90;;;;;;5115591;28;19908;-79
2022/06/07 11:38:57;;;;;;;;;;;17.70;99.90;;;;;;5115849;28;19943;-78
2022/06/07 11:41:37;;;;;;;;;;;17.70;99.90;;;;;;5115263;28;19915;-78
2022/06/07 11:44:12;;;;;;;;;;;17.80;99.90;;;;;;5115429;28;20383;-78
2022/06/07 11:46:38;;;;;;;;;;;17.80;99.90;;;;;;5115079;28;19920;-78
2022/06/07 11:49:22;;;;;;;;;;;17.70;99.90;;;;;;5115645;28;19912;-78
2022/06/07 11:51:50;;;;;;;;;;;17.60;99.90;;;;;;5115507;28;19908;-78
2022/06/07 11:54:16;;;;;;;;;;;17.60;99.90;;;;;;5115148;28;19965;-79
2022/06/07 11:56:43;;;;;;;;;;;17.30;99.90;;;;;;5115495;28;19912;-78
2022/06/07 11:59:18;;;;;;;;;;;17.30;99.90;;;;;;5115354;28;19931;-78
2022/06/07 12:01:53;;;;;;;;;;;17.10;99.90;;;;;;5114303;28;19961;-78
2022/06/07 12:04:37;;;;;;;;;;;17.10;99.90;;;;;;5114926;28;19964;-79
2022/06/07 12:07:09;;;;;;;;;;;17.20;99.90;;;;;;5115312;28;19911;-79
2022/06/07 12:09:35;;;;;;;;;;;17.30;99.90;;;;;;5114830;28;20141;-78
2022/06/07 12:12:18;;;;;;;;;;;17.00;99.90;;;;;;5115177;28;20031;-78
2022/06/07 12:14:45;;;;;;;;;;;16.90;99.90;;;;;;5115181;28;19930;-78
2022/06/07 12:17:24;;;;;;;;;;;16.90;99.90;;;;;;5115174;28;20018;-78
2022/06/07 12:19:50;;;;;;;;;;;16.90;99.90;;;;;;5114688;28;19920;-78
2022/06/07 12:22:19;;;;;;;;;;;16.90;99.90;;;;;;5114957;28;19915;-76
2022/06/07 12:24:52;;;;;;;;;;;16.80;99.90;;;;;;5114850;28;19911;-78
2022/06/07 12:27:24;;;;;;;;;;;16.90;99.90;;;;;;5114791;28;19912;-76
2022/06/07 12:29:50;;;;;;;;;;;16.80;99.90;;;;;;5114852;28;19960;-78
2022/06/07 12:32:27;;;;;;;;;;;16.80;99.90;;;;;;5114833;28;19961;-78
2022/06/07 12:35:04;;;;;;;;;;;16.70;99.90;;;;;;5114945;28;19911;-78
2022/06/07 12:37:31;;;;;;;;;;;16.60;99.90;;;;;;5114343;28;20348;-78
2022/06/07 12:39:57;;;;;;;;;;;16.50;99.90;;;;;;5114752;28;19908;-77
2022/06/07 12:42:27;;;;;;;;;;;16.60;99.90;;;;;;5114236;28;19947;-78
2022/06/07 12:45:17;;;;;;;;;;;16.50;99.90;;;;;;5114497;28;20356;-78
2022/06/07 12:47:44;;;;;;;;;;;16.40;99.90;;;;;;5114319;28;20010;-78
2022/06/07 12:50:24;;;;;;;;;;;16.50;99.90;;;;;;5114519;28;19961;-79
2022/06/07 12:52:51;;;;;;;;;;;16.50;99.90;;;;;;5114737;28;19908;-79
2022/06/07 12:55:21;;;;;;;;;;;16.60;99.90;;;;;;5114399;28;20341;-79
2022/06/07 12:57:48;;;;;;;;;;;16.90;99.90;;;;;;5114360;28;20010;-78
2022/06/07 13:00:16;;;;;;;;;;;17.20;99.90;;;;;;5114377;28;19908;-79
2022/06/07 13:02:43;;;;;;;;;;;17.40;99.90;;;;;;5113923;28;19935;-79
2022/06/07 13:05:10;;;;;;;;;;;17.60;99.90;;;;;;5114287;28;19965;-79
2022/06/07 13:07:49;;;;;;;;;;;17.70;99.90;;;;;;5113820;28;19953;-79
2022/06/07 13:10:16;;;;;;;;;;;17.70;99.90;;;;;;5114078;28;19907;-79
2022/06/07 13:12:44;;;;;;;;;;;17.40;99.90;;;;;;5113453;28;19950;-77
2022/06/07 13:15:13;;;;;;;;;;;17.20;99.90;;;;;;5114083;28;19908;-77
2022/06/07 13:17:41;;;;;;;;;;;17.10;99.90;;;;;;5113526;28;19961;-77
2022/06/07 13:20:11;;;;;;;;;;;17.10;99.90;;;;;;5113564;28;19920;-77
2022/06/07 13:22:38;;;;;;;;;;;17.20;99.90;;;;;;5113280;28;19953;-77
2022/06/07 13:25:16;;;;;;;;;;;17.20;99.90;;;;;;5113519;28;20284;-77
2022/06/07 13:28:08;;;;;;;;;;;17.30;99.90;;;;;;5113132;28;19912;-77
2022/06/07 13:30:41;;;;;;;;;;;17.40;99.90;;;;;;5081674;28;19908;-77
2022/06/07 13:33:10;;;;;;;;;;;17.30;99.90;;;;;;5113726;28;19907;-78
2022/06/07 13:35:55;;;;;;;;;;;17.30;99.90;;;;;;5113231;28;19908;-78
2022/06/07 13:38:21;;;;;;;;;;;17.30;99.90;;;;;;5113362;28;19951;-76
2022/06/07 13:40:47;;;;;;;;;;;17.30;99.90;;;;;;5113579;28;19907;-77
2022/06/07 13:43:16;;;;;;;;;;;17.20;99.90;;;;;;5113627;28;20380;-79
2022/06/07 13:45:43;;;;;;;;;;;17.30;99.90;;;;;;5113108;28;19927;-79
2022/06/07 13:48:14;;;;;;;;;;;17.20;99.90;;;;;;5113462;28;19937;-78
2022/06/07 13:53:48;;;;;;;;;;;17.20;99.90;;;;;;5112720;28;19915;-79
2022/06/07 13:56:15;;;;;;;;;;;17.30;99.90;;;;;;5113576;28;19912;-79
2022/06/07 13:58:41;;;;;;;;;;;17.30;99.90;;;;;;5113121;28;19931;-78
2022/06/07 14:01:15;;;;;;;;;;;17.40;99.90;;;;;;5113439;28;19911;-79
2022/06/07 14:03:44;;;;;;;;;;;17.50;99.90;;;;;;5112679;28;19912;-79
2022/06/07 14:06:20;;;;;;;;;;;17.50;99.90;;;;;;5113476;28;20076;-79
2022/06/07 14:08:47;;;;;;;;;;;17.50;99.90;;;;;;5112838;28;19908;-78
2022/06/07 14:11:12;;;;;;;;;;;17.50;99.90;;;;;;5113318;28;19964;-78
2022/06/07 14:13:38;;;;;;;;;;;17.50;99.90;;;;;;5094659;28;19980;-78
2022/06/07 14:16:04;;;;;;;;;;;17.50;99.90;;;;;;5116016;28;20368;-78
2022/06/07 14:18:30;;;;;;;;;;;17.60;99.90;;;;;;5113294;28;19908;-79
2022/06/07 14:20:56;;;;;;;;;;;17.60;99.90;;;;;;5113503;28;19990;-79
2022/06/07 14:23:22;;;;;;;;;;;17.70;99.90;;;;;;5113713;28;19916;-78
2022/06/07 14:25:48;;;;;;;;;;;18.00;99.90;;;;;;5116915;28;20269;-79
2022/06/07 14:28:19;;;;;;;;;;;18.40;99.90;;;;;;5117431;28;20002;-79
2022/06/07 14:30:47;;;;;;;;;;;18.80;99.90;;;;;;5116902;28;20220;-79
2022/06/07 14:33:13;;;;;;;;;;;18.90;99.90;;;;;;5117319;28;19919;-79
2022/06/07 14:35:38;;;;;;;;;;;18.80;99.90;;;;;;5116809;28;19908;-79
2022/06/07 14:38:05;;;;;;;;;;;18.80;99.90;;;;;;5117324;28;19957;-79
2022/06/07 14:40:33;;;;;;;;;;;18.70;99.90;;;;;;5116788;28;19908;-78
2022/06/07 14:42:59;;;;;;;;;;;18.80;99.90;;;;;;5117084;28;19915;-78
2022/06/07 14:45:26;;;;;;;;;;;18.70;99.90;;;;;;5116780;28;20364;-80
2022/06/07 14:47:56;;;;;;;;;;;18.90;99.90;;;;;;5098688;28;20014;-79
2022/06/07 14:50:22;;;;;;;;;;;18.90;99.90;;;;;;5116823;28;20301;-78
2022/06/07 14:52:48;;;;;;;;;;;19.00;99.90;;;;;;5116509;28;19908;-79
2022/06/07 14:55:15;;;;;;;;;;;19.00;99.90;;;;;;5116854;28;19908;-79
2022/06/07 14:57:43;;;;;;;;;;;19.00;99.90;;;;;;5116393;28;19942;-79